createdAt,value
2023-01-17T00:02:01.237Z,97518.52
2023-01-17T00:05:06.941Z,97526.08
2023-01-17T00:08:11.824Z,97530.91
2023-01-17T00:10:58.417Z,97528.77
2023-01-17T00:13:45.720Z,97531.05
2023-01-17T00:16:32.396Z,97526.10
2023-01-17T00:19:37.540Z,97523.56
2023-01-17T00:22:47.971Z,97523.16
2023-01-17T00:25:57.102Z,97517.52
2023-01-17T00:28:44.731Z,97526.93
2023-01-17T00:31:31.175Z,97523.81
2023-01-17T00:34:17.592Z,97517.98
2023-01-17T00:37:04.166Z,97515.05
2023-01-17T00:39:50.359Z,97514.86
2023-01-17T00:42:36.595Z,97515.88
2023-01-17T00:45:41.264Z,97512.64
2023-01-17T00:48:46.594Z,97513.57
2023-01-17T00:51:52.161Z,97511.85
2023-01-17T00:54:57.324Z,97505.48
2023-01-17T00:58:01.772Z,97510.23
2023-01-17T01:01:06.649Z,97515.20
2023-01-17T01:04:11.169Z,97520.92
2023-01-17T01:07:15.600Z,97518.61
2023-01-17T01:10:20.254Z,97519.14
2023-01-17T01:13:24.939Z,97517.84
2023-01-17T01:16:30.372Z,97518.59
2023-01-17T01:19:34.932Z,97521.41
2023-01-17T01:22:40.006Z,97522.85
2023-01-17T01:25:44.693Z,97519.38
2023-01-17T01:28:49.432Z,97513.73
2023-01-17T01:31:54.258Z,97526.27
2023-01-17T01:34:40.538Z,97530.67
2023-01-17T01:37:26.888Z,97527.17
2023-01-17T01:40:14.815Z,97530.48
2023-01-17T01:43:05.674Z,97531.30
2023-01-17T01:45:54.833Z,97521.36
2023-01-17T01:48:48.742Z,97516.11
2023-01-17T01:52:01.381Z,97504.20
2023-01-17T01:55:11.664Z,97501.36
2023-01-17T01:58:01.881Z,97498.23
2023-01-17T02:00:48.624Z,97496.15
2023-01-17T02:03:36.186Z,97496.61
2023-01-17T02:06:37.850Z,97499.63
2023-01-17T02:09:24.384Z,97499.58
2023-01-17T02:12:11.134Z,97493.73
2023-01-17T02:14:57.455Z,97497.86
2023-01-17T02:18:02.010Z,97491.20
2023-01-17T02:20:58.749Z,97490.16
2023-01-17T02:24:24.016Z,97491.33
2023-01-17T02:27:20.835Z,97490.73
2023-01-17T02:30:18.856Z,97490.33
2023-01-17T02:33:17.351Z,97495.52
2023-01-17T02:36:06.001Z,97496.02
2023-01-17T02:38:59.365Z,97477.90
2023-01-17T02:41:48.887Z,97475.05
2023-01-17T02:44:42.982Z,97481.58
2023-01-17T02:47:30.845Z,97485.79
2023-01-17T02:50:23.538Z,97484.27
2023-01-17T02:53:33.994Z,97493.43
2023-01-17T02:56:34.677Z,97490.91
2023-01-17T02:59:33.779Z,97485.42
2023-01-17T03:02:41.055Z,97490.75
2023-01-17T03:06:11.661Z,97485.34
2023-01-17T03:08:57.973Z,97482.20
2023-01-17T03:11:44.437Z,97479.67
2023-01-17T03:14:31.846Z,97481.05
2023-01-17T03:17:18.735Z,97477.46
2023-01-17T03:20:05.205Z,97479.67
2023-01-17T03:22:51.941Z,97478.67
2023-01-17T03:25:38.530Z,97472.93
2023-01-17T03:28:24.881Z,97471.59
2023-01-17T03:31:15.098Z,97478.16
2023-01-17T03:34:01.656Z,97493.92
2023-01-17T03:36:47.973Z,97492.59
2023-01-17T03:39:34.430Z,97495.12
2023-01-17T03:42:21.005Z,97498.11
2023-01-17T03:45:07.918Z,97499.17
2023-01-17T03:47:56.809Z,97500.39
2023-01-17T03:50:43.246Z,97504.58
2023-01-17T03:53:29.447Z,97500.05
2023-01-17T03:56:16.045Z,97495.77
2023-01-17T03:59:02.549Z,97503.15
2023-01-17T04:01:48.981Z,97506.34
2023-01-17T04:04:35.074Z,97509.17
2023-01-17T04:07:22.912Z,97512.68
2023-01-17T04:10:09.646Z,97520.50
2023-01-17T04:12:56.095Z,97521.48
2023-01-17T04:15:42.681Z,97521.27
2023-01-17T04:18:29.016Z,97519.80
2023-01-17T04:21:15.313Z,97522.26
2023-01-17T04:24:01.607Z,97529.33
2023-01-17T04:26:47.760Z,97530.42
2023-01-17T04:29:34.185Z,97534.31
2023-01-17T04:32:20.610Z,97529.01
2023-01-17T04:35:09.450Z,97521.60
2023-01-17T04:37:55.744Z,97514.00
2023-01-17T04:40:41.799Z,97514.08
2023-01-17T04:43:28.463Z,97502.10
2023-01-17T04:46:14.698Z,97497.95
2023-01-17T04:49:00.825Z,97499.73
2023-01-17T04:51:47.191Z,97498.89
2023-01-17T04:54:33.671Z,97495.78
2023-01-17T04:57:20.176Z,97498.31
2023-01-17T05:00:06.994Z,97503.04
2023-01-17T05:02:53.696Z,97506.45
2023-01-17T05:05:40.002Z,97510.20
2023-01-17T05:08:26.578Z,97505.96
2023-01-17T05:11:12.993Z,97499.45
2023-01-17T05:14:00.167Z,97498.45
2023-01-17T05:16:46.748Z,97498.77
2023-01-17T05:19:33.221Z,97493.67
2023-01-17T05:22:19.403Z,97491.23
2023-01-17T05:25:05.984Z,97490.04
2023-01-17T05:27:52.939Z,97492.93
2023-01-17T05:30:39.536Z,97489.31
2023-01-17T05:33:25.764Z,97493.36
2023-01-17T05:36:11.841Z,97490.77
2023-01-17T05:38:58.633Z,97493.11
2023-01-17T05:41:46.085Z,97498.67
2023-01-17T05:44:32.113Z,97498.75
2023-01-17T05:47:18.561Z,97498.91
2023-01-17T05:50:05.521Z,97498.24
2023-01-17T05:53:06.701Z,97500.40
2023-01-17T05:55:53.110Z,97504.74
2023-01-17T05:58:40.161Z,97513.41
2023-01-17T06:01:26.541Z,97523.59
2023-01-17T06:04:13.089Z,97527.45
2023-01-17T06:06:59.503Z,97527.63
2023-01-17T06:09:45.951Z,97529.21
2023-01-17T06:12:32.397Z,97538.08
2023-01-17T06:15:18.730Z,97548.41
2023-01-17T06:18:09.770Z,97554.00
2023-01-17T06:20:56.395Z,97557.17
2023-01-17T06:23:42.762Z,97562.14
2023-01-17T06:26:29.189Z,97562.17
2023-01-17T06:29:15.690Z,97564.93
2023-01-17T06:32:03.064Z,97567.56
2023-01-17T06:34:49.687Z,97562.63
2023-01-17T06:37:36.109Z,97566.32
2023-01-17T06:40:22.862Z,97564.98
2023-01-17T06:43:09.404Z,97568.03
2023-01-17T06:45:55.684Z,97572.77
2023-01-17T06:48:43.684Z,97576.99
2023-01-17T06:51:30.000Z,97582.59
2023-01-17T06:54:16.398Z,97583.64
2023-01-17T06:57:03.180Z,97581.21
2023-01-17T06:59:49.430Z,97588.19
2023-01-17T07:02:35.605Z,97584.87
2023-01-17T07:05:22.403Z,97592.19
2023-01-17T07:08:08.728Z,97593.67
2023-01-17T07:11:04.326Z,97598.27
2023-01-17T07:13:50.836Z,97604.09
2023-01-17T07:16:37.313Z,97610.02
2023-01-17T07:19:24.421Z,97608.52
2023-01-17T07:22:11.242Z,97608.18
2023-01-17T07:24:58.570Z,97611.96
2023-01-17T07:27:45.239Z,97617.73
2023-01-17T07:30:31.811Z,97621.96
2023-01-17T07:33:18.414Z,97623.83
2023-01-17T07:36:06.414Z,97625.11
2023-01-17T07:38:52.817Z,97631.06
2023-01-17T07:41:41.430Z,97635.02
2023-01-17T07:44:28.208Z,97641.02
2023-01-17T07:47:14.698Z,97645.95
2023-01-17T07:50:01.972Z,97650.36
2023-01-17T07:52:51.988Z,97644.86
2023-01-17T07:55:38.216Z,97647.87
2023-01-17T07:58:24.286Z,97646.85
2023-01-17T08:01:12.871Z,97644.52
2023-01-17T08:03:59.279Z,97644.08
2023-01-17T08:06:48.784Z,97652.67
2023-01-17T08:09:34.806Z,97646.66
2023-01-17T08:12:21.108Z,97649.15
2023-01-17T08:15:08.261Z,97652.05
2023-01-17T08:17:54.514Z,97659.20
2023-01-17T08:20:43.472Z,97662.41
2023-01-17T08:23:31.271Z,97673.21
2023-01-17T08:26:22.372Z,97675.40
2023-01-17T08:29:08.904Z,97677.77
2023-01-17T08:31:55.488Z,97676.29
2023-01-17T08:34:42.020Z,97683.20
2023-01-17T08:37:28.273Z,97687.00
2023-01-17T08:40:19.472Z,97690.77
2023-01-17T08:43:05.845Z,97688.52
2023-01-17T08:45:55.947Z,97689.71
2023-01-17T08:48:42.372Z,97694.30
2023-01-17T08:51:29.930Z,97691.91
2023-01-17T08:54:17.238Z,97696.95
2023-01-17T08:57:05.115Z,97698.21
2023-01-17T08:59:51.478Z,97699.42
2023-01-17T09:02:38.347Z,97700.96
2023-01-17T09:05:24.735Z,97702.63
2023-01-17T09:08:11.336Z,97705.40
2023-01-17T09:10:57.601Z,97710.10
2023-01-17T09:13:44.771Z,97711.46
2023-01-17T09:16:32.055Z,97709.35
2023-01-17T09:19:18.767Z,97706.91
2023-01-17T09:22:06.491Z,97708.03
2023-01-17T09:24:53.408Z,97712.36
2023-01-17T09:27:39.724Z,97712.83
2023-01-17T09:30:26.004Z,97702.88
2023-01-17T09:33:12.315Z,97700.88
2023-01-17T09:36:01.335Z,97697.86
2023-01-17T09:38:47.915Z,97704.04
2023-01-17T09:41:46.192Z,97705.42
2023-01-17T09:44:48.076Z,97704.02
2023-01-17T09:47:37.162Z,97701.20
2023-01-17T09:50:26.488Z,97701.38
2023-01-17T09:53:15.144Z,97706.14
2023-01-17T09:56:10.173Z,97701.48
2023-01-17T09:59:37.016Z,97705.18
2023-01-17T10:02:38.209Z,97711.65
2023-01-17T10:05:38.877Z,97707.57
2023-01-17T10:08:41.818Z,97710.41
2023-01-17T10:11:36.377Z,97717.21
2023-01-17T10:14:45.681Z,97718.42
2023-01-17T10:17:46.338Z,97720.16
2023-01-17T10:20:57.625Z,97723.82
2023-01-17T10:24:06.542Z,97727.63
2023-01-17T10:26:56.258Z,97723.34
2023-01-17T10:29:44.595Z,97722.36
2023-01-17T10:32:33.617Z,97720.79
2023-01-17T10:35:22.819Z,97719.81
2023-01-17T10:38:12.025Z,97719.66
2023-01-17T10:41:06.161Z,97725.88
2023-01-17T10:43:57.907Z,97723.70
2023-01-17T10:46:56.240Z,97727.36
2023-01-17T10:49:45.204Z,97737.83
2023-01-17T10:52:53.303Z,97739.65
2023-01-17T10:55:50.541Z,97742.83
2023-01-17T10:58:36.813Z,97748.13
2023-01-17T11:01:26.277Z,97752.88
2023-01-17T11:04:32.908Z,97754.10
2023-01-17T11:07:25.261Z,97751.34
2023-01-17T11:10:36.807Z,97744.56
2023-01-17T11:13:31.637Z,97737.90
2023-01-17T11:16:21.324Z,97743.48
2023-01-17T11:19:15.853Z,97741.63
2023-01-17T11:22:04.882Z,97738.05
2023-01-17T11:24:53.866Z,97730.16
2023-01-17T11:27:41.007Z,97725.54
2023-01-17T11:30:29.605Z,97727.86
2023-01-17T11:33:45.120Z,97725.77
2023-01-17T11:36:32.035Z,97726.38
2023-01-17T11:39:18.252Z,97720.99
2023-01-17T11:42:06.134Z,97729.63
2023-01-17T11:44:53.504Z,97729.08
2023-01-17T11:47:39.780Z,97726.36
2023-01-17T11:50:26.892Z,97724.02
2023-01-17T11:53:28.957Z,97725.48
2023-01-17T11:56:36.465Z,97719.77
2023-01-17T11:59:34.288Z,97726.77
2023-01-17T12:02:57.977Z,97727.55
2023-01-17T12:06:03.045Z,97722.79
2023-01-17T12:08:59.644Z,97721.77
2023-01-17T12:12:16.899Z,97723.02
2023-01-17T12:15:14.326Z,97720.86
2023-01-17T12:18:12.428Z,97713.48
2023-01-17T12:21:12.406Z,97709.44
2023-01-17T12:24:19.762Z,97706.56
2023-01-17T12:27:32.116Z,97707.71
2023-01-17T12:30:21.443Z,97708.70
2023-01-17T12:33:25.869Z,97702.64
2023-01-17T12:36:24.296Z,97706.36
2023-01-17T12:39:14.180Z,97712.98
2023-01-17T12:42:04.780Z,97709.29
2023-01-17T12:45:02.856Z,97709.44
2023-01-17T12:47:54.869Z,97708.77
2023-01-17T12:50:52.466Z,97703.91
2023-01-17T12:53:59.552Z,97700.28
2023-01-17T12:56:50.771Z,97702.89
2023-01-17T12:59:55.772Z,97705.08
2023-01-17T13:02:56.736Z,97705.55
2023-01-17T13:05:46.262Z,97704.69
2023-01-17T13:08:46.590Z,97716.38
2023-01-17T13:11:43.733Z,97717.56
2023-01-17T13:14:29.819Z,97727.59
2023-01-17T13:17:35.300Z,97732.36
2023-01-17T13:20:44.830Z,97734.94
2023-01-17T13:23:54.138Z,97739.60
2023-01-17T13:26:55.754Z,97750.31
2023-01-17T13:29:48.032Z,97761.04
2023-01-17T13:33:02.114Z,97768.46
2023-01-17T13:35:51.223Z,97776.23
2023-01-17T13:39:06.049Z,97785.64
2023-01-17T13:42:26.870Z,97795.42
2023-01-17T13:45:24.707Z,97805.06
2023-01-17T13:48:25.660Z,97810.95
2023-01-17T13:51:12.085Z,97817.35
2023-01-17T13:53:58.855Z,97814.79
2023-01-17T13:56:45.431Z,97813.92
2023-01-17T13:59:31.801Z,97806.45
2023-01-17T14:02:33.048Z,97808.29
2023-01-17T14:05:49.233Z,97812.84
2023-01-17T14:08:38.857Z,97822.36
2023-01-17T14:11:25.986Z,97829.71
2023-01-17T14:14:40.126Z,97836.30
2023-01-17T14:17:37.013Z,97848.00
2023-01-17T14:20:41.356Z,97858.17
2023-01-17T14:23:32.718Z,97865.97
2023-01-17T14:26:43.603Z,97873.87
2023-01-17T14:29:50.824Z,97883.66
2023-01-17T14:32:37.932Z,97899.14
2023-01-17T14:35:29.846Z,97910.48
2023-01-17T14:38:20.999Z,97923.35
2023-01-17T14:41:08.719Z,97926.34
2023-01-17T14:43:55.542Z,97928.95
2023-01-17T14:46:47.442Z,97930.11
2023-01-17T14:49:33.946Z,97928.10
2023-01-17T14:52:23.559Z,97922.63
2023-01-17T14:55:18.507Z,97924.38
2023-01-17T14:58:04.912Z,97927.95
2023-01-17T15:00:55.659Z,97931.09
2023-01-17T15:03:44.360Z,97937.42
2023-01-17T15:06:40.972Z,97939.64
2023-01-17T15:09:31.497Z,97936.79
2023-01-17T15:12:19.048Z,97937.70
2023-01-17T15:15:05.779Z,97942.13
2023-01-17T15:17:53.737Z,97937.43
2023-01-17T15:20:42.203Z,97936.23
2023-01-17T15:23:34.489Z,97933.93
2023-01-17T15:26:24.575Z,97940.80
2023-01-17T15:29:21.462Z,97940.80
2023-01-17T15:32:18.373Z,97933.04
2023-01-17T15:35:07.962Z,97935.79
2023-01-17T15:37:55.095Z,97935.87
2023-01-17T15:40:45.668Z,97944.99
2023-01-17T15:43:35.886Z,97946.00
2023-01-17T15:46:25.862Z,97940.33
2023-01-17T15:49:24.573Z,97931.63
2023-01-17T15:52:16.907Z,97934.61
2023-01-17T15:55:13.684Z,97927.02
2023-01-17T15:58:00.463Z,97932.86
2023-01-17T16:00:47.201Z,97934.31
2023-01-17T16:03:33.681Z,97929.40
2023-01-17T16:06:45.519Z,97927.54
2023-01-17T16:09:41.854Z,97922.35
2023-01-17T16:12:28.161Z,97923.12
2023-01-17T16:15:18.193Z,97924.33
2023-01-17T16:18:14.000Z,97920.98
2023-01-17T16:21:11.145Z,97924.60
2023-01-17T16:23:59.367Z,97922.31
2023-01-17T16:26:45.879Z,97924.56
2023-01-17T16:29:32.250Z,97919.10
2023-01-17T16:32:18.752Z,97919.80
2023-01-17T16:35:07.088Z,97917.32
2023-01-17T16:37:55.320Z,97913.11
2023-01-17T16:40:46.697Z,97912.55
2023-01-17T16:43:33.414Z,97916.98
2023-01-17T16:46:20.664Z,97916.80
2023-01-17T16:49:07.038Z,97916.92
2023-01-17T16:51:53.219Z,97915.44
2023-01-17T16:54:39.446Z,97909.98
2023-01-17T16:57:25.855Z,97906.98
2023-01-17T17:00:12.847Z,97903.34
2023-01-17T17:02:59.205Z,97906.61
2023-01-17T17:05:47.237Z,97910.30
2023-01-17T17:08:35.173Z,97914.58
2023-01-17T17:11:23.275Z,97913.41
2023-01-17T17:14:09.872Z,97917.91
2023-01-17T17:16:56.969Z,97920.72
2023-01-17T17:19:43.546Z,97931.33
2023-01-17T17:22:30.295Z,97929.79
2023-01-17T17:25:17.031Z,97930.69
2023-01-17T17:28:04.915Z,97929.20
2023-01-17T17:31:01.432Z,97928.02
2023-01-17T17:33:48.752Z,97932.98
2023-01-17T17:36:35.770Z,97934.15
2023-01-17T17:39:21.869Z,97934.92
2023-01-17T17:42:08.813Z,97928.30
2023-01-17T17:44:54.932Z,97929.92
2023-01-17T17:47:41.252Z,97930.41
2023-01-17T17:50:27.499Z,97933.12
2023-01-17T17:53:14.289Z,97930.91
2023-01-17T17:56:07.508Z,97936.69
2023-01-17T17:58:54.022Z,97945.88
2023-01-17T18:01:43.143Z,97952.02
2023-01-17T18:04:29.791Z,97963.34
2023-01-17T18:07:16.105Z,97966.98
2023-01-17T18:10:03.716Z,97962.13
2023-01-17T18:12:50.211Z,97957.02
2023-01-17T18:15:36.348Z,97956.98
2023-01-17T18:18:22.873Z,97964.52
2023-01-17T18:21:14.945Z,97969.09
2023-01-17T18:24:04.638Z,97970.61
2023-01-17T18:26:53.327Z,97975.49
2023-01-17T18:29:39.983Z,97985.26
2023-01-17T18:32:26.334Z,97986.54
2023-01-17T18:35:12.647Z,97972.25
2023-01-17T18:37:59.233Z,97974.29
2023-01-17T18:40:45.606Z,97969.55
2023-01-17T18:43:32.010Z,97972.77
2023-01-17T18:46:19.940Z,97980.96
2023-01-17T18:49:06.529Z,97991.45
2023-01-17T18:51:53.095Z,98009.54
2023-01-17T18:54:39.801Z,98018.27
2023-01-17T18:57:25.995Z,98021.02
2023-01-17T19:00:13.884Z,98012.71
2023-01-17T19:02:59.942Z,98003.67
2023-01-17T19:05:48.344Z,97992.85
2023-01-17T19:08:35.186Z,97992.35
2023-01-17T19:11:22.922Z,98005.60
2023-01-17T19:14:10.792Z,98028.91
2023-01-17T19:16:57.508Z,98033.66
2023-01-17T19:19:43.810Z,98033.08
2023-01-17T19:22:30.734Z,98026.91
2023-01-17T19:25:17.385Z,98016.65
2023-01-17T19:28:04.218Z,98007.60
2023-01-17T19:31:01.461Z,98005.79
2023-01-17T19:33:49.324Z,98001.62
2023-01-17T19:36:37.703Z,98003.80
2023-01-17T19:39:27.115Z,98000.41
2023-01-17T19:42:15.712Z,97997.89
2023-01-17T19:45:02.279Z,97997.89
2023-01-17T19:47:48.465Z,98002.70
2023-01-17T19:50:34.818Z,98012.29
2023-01-17T19:53:24.357Z,98017.64
2023-01-17T19:56:17.694Z,98008.66
2023-01-17T19:59:04.227Z,97997.48
2023-01-17T20:01:51.373Z,97994.96
2023-01-17T20:04:37.821Z,97997.63
2023-01-17T20:07:24.214Z,97993.95
2023-01-17T20:10:11.029Z,97993.01
2023-01-17T20:12:57.240Z,97999.28
2023-01-17T20:15:43.427Z,98002.08
2023-01-17T20:18:30.327Z,97999.58
2023-01-17T20:21:18.785Z,98009.41
2023-01-17T20:24:05.776Z,98022.11
2023-01-17T20:26:52.339Z,98020.39
2023-01-17T20:29:40.739Z,98019.88
2023-01-17T20:32:27.362Z,98018.81
2023-01-17T20:35:13.622Z,98023.02
2023-01-17T20:38:00.085Z,98023.04
2023-01-17T20:40:55.381Z,98019.07
2023-01-17T20:43:47.624Z,98016.15
2023-01-17T20:46:40.557Z,98019.37
2023-01-17T20:49:27.364Z,98018.59
2023-01-17T20:52:15.391Z,98018.20
2023-01-17T20:55:01.611Z,98014.98
2023-01-17T20:57:47.861Z,98032.32
2023-01-17T21:00:37.763Z,98033.08
2023-01-17T21:03:29.159Z,98031.17
2023-01-17T21:06:16.161Z,98035.03
2023-01-17T21:09:05.497Z,98024.73
2023-01-17T21:11:52.174Z,98019.48
2023-01-17T21:14:40.676Z,98014.73
2023-01-17T21:17:26.836Z,98015.41
2023-01-17T21:20:16.797Z,98016.03
2023-01-17T21:23:03.079Z,98014.58
2023-01-17T21:25:49.456Z,98015.36
2023-01-17T21:31:49.036Z,98006.27
2023-01-17T21:34:36.148Z,98001.13
2023-01-17T21:37:22.881Z,97993.68
2023-01-17T21:40:10.874Z,97983.52
2023-01-17T21:42:57.414Z,97975.27
2023-01-17T21:45:44.516Z,97971.43
2023-01-17T21:48:31.458Z,97977.84
2023-01-17T21:51:21.866Z,97987.52
2023-01-17T21:54:08.554Z,97992.30
2023-01-17T21:57:13.999Z,97996.70
2023-01-17T22:00:00.583Z,97996.92
2023-01-17T22:02:48.203Z,97999.45
2023-01-17T22:05:34.724Z,97997.33
2023-01-17T22:08:21.554Z,97995.67
2023-01-17T22:11:11.066Z,97989.38
2023-01-17T22:13:59.225Z,97978.79
2023-01-17T22:16:46.503Z,97971.33
2023-01-17T22:19:33.795Z,97971.23
2023-01-17T22:22:20.473Z,97976.52
2023-01-17T22:25:09.135Z,97987.40
2023-01-17T22:27:56.510Z,97985.09
2023-01-17T22:30:42.949Z,97979.02
2023-01-17T22:33:29.043Z,97978.74
2023-01-17T22:36:20.384Z,97979.39
2023-01-17T22:39:07.170Z,97973.95
2023-01-17T22:41:53.333Z,97967.92
2023-01-17T22:44:39.617Z,97969.00
2023-01-17T22:47:26.663Z,97975.55
2023-01-17T22:50:13.223Z,97978.65
2023-01-17T22:52:59.760Z,97982.27
2023-01-17T22:55:46.439Z,97991.17
2023-01-17T22:58:33.888Z,97992.99
2023-01-17T23:01:23.175Z,97992.86
2023-01-17T23:04:12.489Z,97977.83
2023-01-17T23:06:59.153Z,97971.02
2023-01-17T23:09:45.476Z,97956.95
2023-01-17T23:12:31.827Z,97950.06
2023-01-17T23:15:36.590Z,97953.88
2023-01-17T23:18:41.387Z,97962.67
2023-01-17T23:21:47.591Z,97972.87
2023-01-17T23:24:34.004Z,97974.46
2023-01-17T23:27:47.586Z,97976.59
2023-01-17T23:30:36.562Z,97978.36
2023-01-17T23:33:23.002Z,97974.14
2023-01-17T23:36:09.401Z,97964.52
2023-01-17T23:38:55.966Z,97952.63
2023-01-17T23:42:00.827Z,97945.08
2023-01-17T23:44:47.070Z,97945.88
2023-01-17T23:47:33.597Z,97941.48
2023-01-17T23:50:20.102Z,97940.19
2023-01-17T23:53:07.245Z,97945.13
2023-01-17T23:55:56.090Z,97948.40
2023-01-17T23:58:42.393Z,97944.27
